sensor_id;sensor_type;location;lat;lon;timestamp;pressure;altitude;pressure_sealevel;temperature;humidity
55456;BME280;63021;52.836;6.376;2022-10-16T00:01:46;100919.09;;;12.74;76.32
55456;BME280;63021;52.836;6.376;2022-10-16T00:04:12;100920.78;;;12.75;75.82
55456;BME280;63021;52.836;6.376;2022-10-16T00:06:43;100920.63;;;12.76;76.16
55456;BME280;63021;52.836;6.376;2022-10-16T00:09:09;100936.47;;;12.78;75.84
55456;BME280;63021;52.836;6.376;2022-10-16T00:11:37;100925.63;;;12.79;75.83
55456;BME280;63021;52.836;6.376;2022-10-16T00:14:06;100927.47;;;12.79;76.04
55456;BME280;63021;52.836;6.376;2022-10-16T00:16:38;100923.78;;;12.80;75.63
55456;BME280;63021;52.836;6.376;2022-10-16T00:19:04;100925.78;;;12.78;76.15
55456;BME280;63021;52.836;6.376;2022-10-16T00:21:30;100921.97;;;12.80;75.62
55456;BME280;63021;52.836;6.376;2022-10-16T00:24:00;100932.50;;;12.82;75.52
55456;BME280;63021;52.836;6.376;2022-10-16T00:26:28;100932.66;;;12.80;75.99
55456;BME280;63021;52.836;6.376;2022-10-16T00:28:54;100925.47;;;12.81;75.49
55456;BME280;63021;52.836;6.376;2022-10-16T00:31:21;100932.66;;;12.80;75.76
55456;BME280;63021;52.836;6.376;2022-10-16T00:33:47;100930.97;;;12.79;75.65
55456;BME280;63021;52.836;6.376;2022-10-16T00:36:16;100930.16;;;12.79;75.65
55456;BME280;63021;52.836;6.376;2022-10-16T00:38:41;100929.28;;;12.78;75.36
55456;BME280;63021;52.836;6.376;2022-10-16T00:41:11;100918.59;;;12.78;75.47
55456;BME280;63021;52.836;6.376;2022-10-16T00:43:47;100919.47;;;12.79;75.78
55456;BME280;63021;52.836;6.376;2022-10-16T00:46:17;100924.97;;;12.77;75.63
55456;BME280;63021;52.836;6.376;2022-10-16T00:48:48;100922.28;;;12.77;75.14
55456;BME280;63021;52.836;6.376;2022-10-16T00:51:17;100921.44;;;12.77;75.61
55456;BME280;63021;52.836;6.376;2022-10-16T00:53:44;100925.97;;;12.76;75.54
55456;BME280;63021;52.836;6.376;2022-10-16T00:56:10;100929.28;;;12.78;75.60
55456;BME280;63021;52.836;6.376;2022-10-16T00:58:39;100930.16;;;12.79;75.57
55456;BME280;63021;52.836;6.376;2022-10-16T01:01:04;100921.44;;;12.77;75.69
55456;BME280;63021;52.836;6.376;2022-10-16T01:03:33;100924.97;;;12.77;75.68
55456;BME280;63021;52.836;6.376;2022-10-16T01:06:24;100922.13;;;12.79;75.62
55456;BME280;63021;52.836;6.376;2022-10-16T01:09:21;100926.47;;;12.80;75.60
55456;BME280;63021;52.836;6.376;2022-10-16T01:11:57;100921.44;;;12.77;75.53
55456;BME280;63021;52.836;6.376;2022-10-16T01:14:34;100924.13;;;12.77;75.30
55456;BME280;63021;52.836;6.376;2022-10-16T01:17:12;100919.63;;;12.77;75.55
55456;BME280;63021;52.836;6.376;2022-10-16T01:23:10;100925.47;;;12.81;75.53
55456;BME280;63021;52.836;6.376;2022-10-16T01:28:41;100926.47;;;12.80;75.38
55456;BME280;63021;52.836;6.376;2022-10-16T01:31:17;100921.13;;;12.80;75.45
55456;BME280;63021;52.836;6.376;2022-10-16T01:33:46;100915.78;;;12.80;75.00
55456;BME280;63021;52.836;6.376;2022-10-16T01:36:16;100918.31;;;12.81;75.25
55456;BME280;63021;52.836;6.376;2022-10-16T01:38:44;100927.00;;;12.83;75.23
55456;BME280;63021;52.836;6.376;2022-10-16T01:41:16;100927.81;;;12.84;74.71
55456;BME280;63021;52.836;6.376;2022-10-16T01:43:48;100929.50;;;12.85;75.13
55456;BME280;63021;52.836;6.376;2022-10-16T01:46:17;100931.34;;;12.85;74.67
55456;BME280;63021;52.836;6.376;2022-10-16T01:48:43;100936.53;;;12.86;75.22
55456;BME280;63021;52.836;6.376;2022-10-16T01:51:12;100924.00;;;12.87;74.96
55456;BME280;63021;52.836;6.376;2022-10-16T01:53:40;100915.00;;;12.88;74.75
55456;BME280;63021;52.836;6.376;2022-10-16T01:56:09;100921.31;;;12.87;74.58
55456;BME280;63021;52.836;6.376;2022-10-16T01:58:43;100919.47;;;12.87;74.52
55456;BME280;63021;52.836;6.376;2022-10-16T02:01:11;100914.28;;;12.86;74.28
55456;BME280;63021;52.836;6.376;2022-10-16T02:03:41;100909.81;;;12.86;74.53
55456;BME280;63021;52.836;6.376;2022-10-16T02:06:08;100911.63;;;12.86;74.72
55456;BME280;63021;52.836;6.376;2022-10-16T02:08:34;100908.94;;;12.86;74.61
55456;BME280;63021;52.836;6.376;2022-10-16T02:11:00;100915.16;;;12.86;74.91
55456;BME280;63021;52.836;6.376;2022-10-16T02:13:39;100916.81;;;12.87;74.44
55456;BME280;63021;52.836;6.376;2022-10-16T02:16:09;100919.47;;;12.87;74.90
55456;BME280;63021;52.836;6.376;2022-10-16T02:18:35;100924.00;;;12.87;74.43
55456;BME280;63021;52.836;6.376;2022-10-16T02:21:07;100926.50;;;12.88;74.69
55456;BME280;63021;52.836;6.376;2022-10-16T02:23:50;100926.50;;;12.88;74.74
55456;BME280;63021;52.836;6.376;2022-10-16T02:26:26;100924.81;;;12.87;74.67
55456;BME280;63021;52.836;6.376;2022-10-16T02:29:00;100932.53;;;12.90;74.41
55456;BME280;63021;52.836;6.376;2022-10-16T02:31:28;100922.69;;;12.91;74.63
55456;BME280;63021;52.836;6.376;2022-10-16T02:33:58;100924.38;;;12.92;74.16
55456;BME280;63021;52.836;6.376;2022-10-16T02:36:25;100924.38;;;12.92;74.38
55456;BME280;63021;52.836;6.376;2022-10-16T02:38:51;100924.53;;;12.90;74.02
55456;BME280;63021;52.836;6.376;2022-10-16T02:41:18;100929.72;;;12.92;74.41
55456;BME280;63021;52.836;6.376;2022-10-16T02:43:43;100936.88;;;12.91;74.46
55456;BME280;63021;52.836;6.376;2022-10-16T02:46:09;100942.91;;;12.93;74.26
55456;BME280;63021;52.836;6.376;2022-10-16T02:48:35;100943.72;;;12.94;74.76
55456;BME280;63021;52.836;6.376;2022-10-16T02:51:01;100935.72;;;12.94;74.80
55456;BME280;63021;52.836;6.376;2022-10-16T02:53:26;100935.72;;;12.94;74.35
55456;BME280;63021;52.836;6.376;2022-10-16T02:55:51;100935.88;;;12.92;74.37
55456;BME280;63021;52.836;6.376;2022-10-16T02:58:19;100947.25;;;12.94;74.80
55456;BME280;63021;52.836;6.376;2022-10-16T03:00:44;100936.72;;;12.93;74.56
55456;BME280;63021;52.836;6.376;2022-10-16T03:03:13;100945.41;;;12.95;74.74
55456;BME280;63021;52.836;6.376;2022-10-16T03:05:38;100950.75;;;12.95;74.95
55456;BME280;63021;52.836;6.376;2022-10-16T03:08:04;100953.59;;;12.93;74.87
55456;BME280;63021;52.836;6.376;2022-10-16T03:10:30;100953.59;;;12.93;74.75
55456;BME280;63021;52.836;6.376;2022-10-16T03:12:55;100957.25;;;12.92;74.46
55456;BME280;63021;52.836;6.376;2022-10-16T03:15:23;100957.94;;;12.94;74.55
55456;BME280;63021;52.836;6.376;2022-10-16T03:17:48;100968.63;;;12.94;74.45
55456;BME280;63021;52.836;6.376;2022-10-16T03:20:14;100960.63;;;12.94;74.86
55456;BME280;63021;52.836;6.376;2022-10-16T03:22:39;100963.97;;;12.96;74.93
55456;BME280;63021;52.836;6.376;2022-10-16T03:25:06;100959.44;;;12.97;74.81
55456;BME280;63021;52.836;6.376;2022-10-16T03:27:31;100964.78;;;12.97;75.16
55456;BME280;63021;52.836;6.376;2022-10-16T03:29:56;100969.16;;;12.98;74.83
55456;BME280;63021;52.836;6.376;2022-10-16T03:32:22;100972.63;;;12.98;74.78
55456;BME280;63021;52.836;6.376;2022-10-16T03:34:47;100977.81;;;13.00;74.70
55456;BME280;63021;52.836;6.376;2022-10-16T03:37:13;100974.50;;;12.98;74.84
55456;BME280;63021;52.836;6.376;2022-10-16T03:39:38;100976.84;;;13.01;74.88
55456;BME280;63021;52.836;6.376;2022-10-16T03:42:03;100978.53;;;13.02;74.74
55456;BME280;63021;52.836;6.376;2022-10-16T03:44:29;100970.50;;;13.02;74.73
55456;BME280;63021;52.836;6.376;2022-10-16T03:46:55;100975.03;;;13.02;74.59
55456;BME280;63021;52.836;6.376;2022-10-16T03:49:20;100968.00;;;13.00;74.82
55456;BME280;63021;52.836;6.376;2022-10-16T03:51:45;100973.50;;;12.99;75.03
55456;BME280;63021;52.836;6.376;2022-10-16T03:54:11;100976.34;;;12.97;74.63
55456;BME280;63021;52.836;6.376;2022-10-16T03:56:40;100974.66;;;12.96;74.99
55456;BME280;63021;52.836;6.376;2022-10-16T03:59:05;100980.31;;;12.93;75.19
55456;BME280;63021;52.836;6.376;2022-10-16T04:01:30;100973.28;;;12.92;75.27
55456;BME280;63021;52.836;6.376;2022-10-16T04:03:56;100981.47;;;12.91;74.86
55456;BME280;63021;52.836;6.376;2022-10-16T04:06:21;100983.31;;;12.90;75.22
55456;BME280;63021;52.836;6.376;2022-10-16T04:08:46;100977.28;;;12.88;75.35
55456;BME280;63021;52.836;6.376;2022-10-16T04:11:12;100972.91;;;12.87;75.04
55456;BME280;63021;52.836;6.376;2022-10-16T04:13:37;100978.56;;;12.84;75.36
55456;BME280;63021;52.836;6.376;2022-10-16T04:16:03;100980.44;;;12.83;75.06
55456;BME280;63021;52.836;6.376;2022-10-16T04:18:28;100973.72;;;12.79;75.53
55456;BME280;63021;52.836;6.376;2022-10-16T04:20:54;100971.22;;;12.78;75.20
55456;BME280;63021;52.836;6.376;2022-10-16T04:23:20;100979.53;;;12.75;75.43
55456;BME280;63021;52.836;6.376;2022-10-16T04:25:45;100995.03;;;12.71;75.53
55456;BME280;63021;52.836;6.376;2022-10-16T04:28:10;101005.06;;;12.69;75.39
55456;BME280;63021;52.836;6.376;2022-10-16T04:30:38;101008.72;;;12.68;75.89
55456;BME280;63021;52.836;6.376;2022-10-16T04:33:03;101017.75;;;12.67;75.60
55456;BME280;63021;52.836;6.376;2022-10-16T04:35:29;101015.19;;;12.65;75.90
55456;BME280;63021;52.836;6.376;2022-10-16T04:37:57;101026.88;;;12.64;76.05
55456;BME280;63021;52.836;6.376;2022-10-16T04:40:22;101019.88;;;12.63;75.85
55456;BME280;63021;52.836;6.376;2022-10-16T04:42:48;101034.03;;;12.64;76.24
55456;BME280;63021;52.836;6.376;2022-10-16T04:45:13;101035.72;;;12.65;76.50
55456;BME280;63021;52.836;6.376;2022-10-16T04:47:39;101038.25;;;12.67;76.04
55456;BME280;63021;52.836;6.376;2022-10-16T04:50:04;101039.09;;;12.67;76.73
55456;BME280;63021;52.836;6.376;2022-10-16T04:52:30;101040.91;;;12.67;76.56
55456;BME280;63021;52.836;6.376;2022-10-16T04:54:57;101043.59;;;12.67;76.91
55456;BME280;63021;52.836;6.376;2022-10-16T04:57:25;101040.91;;;12.67;76.60
55456;BME280;63021;52.836;6.376;2022-10-16T04:59:52;101028.25;;;12.69;76.66
55456;BME280;63021;52.836;6.376;2022-10-16T05:02:17;101033.59;;;12.69;76.23
55456;BME280;63021;52.836;6.376;2022-10-16T05:04:42;101042.44;;;12.69;76.41
55456;BME280;63021;52.836;6.376;2022-10-16T05:07:08;101031.91;;;12.68;76.96
55456;BME280;63021;52.836;6.376;2022-10-16T05:09:34;101047.78;;;12.69;76.99
55456;BME280;63021;52.836;6.376;2022-10-16T05:11:59;101043.44;;;12.68;76.93
55456;BME280;63021;52.836;6.376;2022-10-16T05:14:25;101050.47;;;12.69;77.08
55456;BME280;63021;52.836;6.376;2022-10-16T05:16:50;101053.97;;;12.70;77.05
55456;BME280;63021;52.836;6.376;2022-10-16T05:19:16;101046.97;;;12.69;77.33
55456;BME280;63021;52.836;6.376;2022-10-16T05:21:42;101055.97;;;12.68;77.01
55456;BME280;63021;52.836;6.376;2022-10-16T05:24:07;101047.94;;;12.68;77.21
55456;BME280;63021;52.836;6.376;2022-10-16T05:26:34;101060.31;;;12.69;76.77
55456;BME280;63021;52.836;6.376;2022-10-16T05:28:59;101062.13;;;12.68;77.67
55456;BME280;63021;52.836;6.376;2022-10-16T05:31:25;101077.84;;;12.71;77.09
55456;BME280;63021;52.836;6.376;2022-10-16T05:33:50;101071.66;;;12.71;76.95
55456;BME280;63021;52.836;6.376;2022-10-16T05:36:15;101067.00;;;12.73;76.79
55456;BME280;63021;52.836;6.376;2022-10-16T05:38:43;101078.53;;;12.73;77.30
55456;BME280;63021;52.836;6.376;2022-10-16T05:41:09;101072.22;;;12.74;77.12
55456;BME280;63021;52.836;6.376;2022-10-16T05:43:34;101074.88;;;12.74;77.06
55456;BME280;63021;52.836;6.376;2022-10-16T05:46:02;101088.38;;;12.73;76.98
55456;BME280;63021;52.836;6.376;2022-10-16T05:48:28;101078.53;;;12.73;76.90
55456;BME280;63021;52.836;6.376;2022-10-16T05:51:04;101087.69;;;12.71;77.68
55456;BME280;63021;52.836;6.376;2022-10-16T05:53:32;101098.94;;;12.74;77.18
55456;BME280;63021;52.836;6.376;2022-10-16T05:55:58;101084.03;;;12.72;77.20
55456;BME280;63021;52.836;6.376;2022-10-16T05:58:25;101089.38;;;12.72;77.32
55456;BME280;63021;52.836;6.376;2022-10-16T06:00:58;101094.41;;;12.75;77.83
55456;BME280;63021;52.836;6.376;2022-10-16T06:03:23;101094.41;;;12.75;77.39
55456;BME280;63021;52.836;6.376;2022-10-16T06:05:49;101112.13;;;12.76;77.41
55456;BME280;63021;52.836;6.376;2022-10-16T06:08:15;101120.13;;;12.76;77.13
55456;BME280;63021;52.836;6.376;2022-10-16T06:10:40;101124.47;;;12.77;77.00
55456;BME280;63021;52.836;6.376;2022-10-16T06:13:05;101119.13;;;12.77;77.06
55456;BME280;63021;52.836;6.376;2022-10-16T06:15:31;101125.31;;;12.77;77.36
55456;BME280;63021;52.836;6.376;2022-10-16T06:17:56;101128.16;;;12.76;77.24
55456;BME280;63021;52.836;6.376;2022-10-16T06:20:21;101129.81;;;12.77;76.86
55456;BME280;63021;52.836;6.376;2022-10-16T06:22:47;101131.50;;;12.78;77.64
55456;BME280;63021;52.836;6.376;2022-10-16T06:25:12;101137.66;;;12.78;77.40
55456;BME280;63021;52.836;6.376;2022-10-16T06:27:41;101140.19;;;12.80;77.41
55456;BME280;63021;52.836;6.376;2022-10-16T06:30:07;101134.84;;;12.80;77.37
55456;BME280;63021;52.836;6.376;2022-10-16T06:32:32;101142.84;;;12.80;77.71
55456;BME280;63021;52.836;6.376;2022-10-16T06:34:58;101128.50;;;12.81;77.61
55456;BME280;63021;52.836;6.376;2022-10-16T06:37:23;101137.22;;;12.83;77.70
55456;BME280;63021;52.836;6.376;2022-10-16T06:39:50;101149.56;;;12.84;77.46
55456;BME280;63021;52.836;6.376;2022-10-16T06:42:17;101144.94;;;12.86;77.65
55456;BME280;63021;52.836;6.376;2022-10-16T06:44:42;101143.91;;;12.87;77.76
55456;BME280;63021;52.836;6.376;2022-10-16T06:47:08;101147.28;;;12.89;77.57
55456;BME280;63021;52.836;6.376;2022-10-16T06:49:33;101147.28;;;12.89;77.67
55456;BME280;63021;52.836;6.376;2022-10-16T06:51:58;101160.34;;;12.92;77.26
55456;BME280;63021;52.836;6.376;2022-10-16T06:54:24;101168.19;;;12.94;77.67
55456;BME280;63021;52.836;6.376;2022-10-16T06:56:50;101170.56;;;12.97;77.41
55456;BME280;63021;52.836;6.376;2022-10-16T06:59:16;101168.75;;;12.97;77.86
55456;BME280;63021;52.836;6.376;2022-10-16T07:01:41;101174.75;;;12.99;77.42
55456;BME280;63021;52.836;6.376;2022-10-16T07:04:07;101173.44;;;13.04;77.94
55456;BME280;63021;52.836;6.376;2022-10-16T07:06:33;101175.97;;;13.05;77.51
55456;BME280;63021;52.836;6.376;2022-10-16T07:09:01;101189.03;;;13.08;77.28
55456;BME280;63021;52.836;6.376;2022-10-16T07:11:27;101184.38;;;13.10;76.95
55456;BME280;63021;52.836;6.376;2022-10-16T07:13:53;101188.53;;;13.13;77.33
55456;BME280;63021;52.836;6.376;2022-10-16T07:16:20;101193.91;;;13.13;77.45
55456;BME280;63021;52.836;6.376;2022-10-16T07:18:46;101196.13;;;13.17;77.25
55456;BME280;63021;52.836;6.376;2022-10-16T07:21:18;101205.63;;;13.20;77.25
55456;BME280;63021;52.836;6.376;2022-10-16T07:23:49;101197.50;;;13.22;77.59
55456;BME280;63021;52.836;6.376;2022-10-16T07:26:15;101202.69;;;13.23;77.33
55456;BME280;63021;52.836;6.376;2022-10-16T07:28:42;101205.88;;;13.27;77.10
55456;BME280;63021;52.836;6.376;2022-10-16T07:31:10;101222.75;;;13.27;77.04
55456;BME280;63021;52.836;6.376;2022-10-16T07:33:38;101216.41;;;13.28;77.32
55456;BME280;63021;52.836;6.376;2022-10-16T07:36:04;101233.81;;;13.32;77.08
55456;BME280;63021;52.836;6.376;2022-10-16T07:38:29;101225.63;;;13.34;76.70
55456;BME280;63021;52.836;6.376;2022-10-16T07:41:00;101237.91;;;13.37;76.57
55456;BME280;63021;52.836;6.376;2022-10-16T07:43:26;101241.25;;;13.39;76.95
55456;BME280;63021;52.836;6.376;2022-10-16T07:45:52;101242.94;;;13.40;76.26
55456;BME280;63021;52.836;6.376;2022-10-16T07:48:18;101249.81;;;13.42;76.27
55456;BME280;63021;52.836;6.376;2022-10-16T07:50:44;101257.69;;;13.44;76.70
55456;BME280;63021;52.836;6.376;2022-10-16T07:53:10;101270.72;;;13.47;76.56
55456;BME280;63021;52.836;6.376;2022-10-16T07:55:36;101275.75;;;13.50;76.52
55456;BME280;63021;52.836;6.376;2022-10-16T07:58:01;101268.75;;;13.49;75.89
55456;BME280;63021;52.836;6.376;2022-10-16T08:00:27;101272.94;;;13.51;75.76
55456;BME280;63021;52.836;6.376;2022-10-16T08:02:52;101270.97;;;13.54;76.22
55456;BME280;63021;52.836;6.376;2022-10-16T08:05:17;101279.66;;;13.56;76.02
55456;BME280;63021;52.836;6.376;2022-10-16T08:07:48;101281.19;;;13.58;76.19
55456;BME280;63021;52.836;6.376;2022-10-16T08:10:18;101294.94;;;13.63;75.10
55456;BME280;63021;52.836;6.376;2022-10-16T08:12:44;101291.25;;;13.64;75.84
55456;BME280;63021;52.836;6.376;2022-10-16T08:15:09;101297.16;;;13.68;75.80
55456;BME280;63021;52.836;6.376;2022-10-16T08:17:35;101295.84;;;13.72;75.57
55456;BME280;63021;52.836;6.376;2022-10-16T08:20:00;101290.16;;;13.75;75.72
55456;BME280;63021;52.836;6.376;2022-10-16T08:22:26;101293.34;;;13.79;75.66
55456;BME280;63021;52.836;6.376;2022-10-16T08:24:52;101275.16;;;13.82;75.50
55456;BME280;63021;52.836;6.376;2022-10-16T08:27:17;101291.72;;;13.86;75.43
55456;BME280;63021;52.836;6.376;2022-10-16T08:29:42;101296.09;;;13.87;75.64
55456;BME280;63021;52.836;6.376;2022-10-16T08:32:08;101303.97;;;13.89;75.70
55456;BME280;63021;52.836;6.376;2022-10-16T08:34:33;101308.16;;;13.91;75.72
55456;BME280;63021;52.836;6.376;2022-10-16T08:36:59;101315.88;;;13.94;75.72
55456;BME280;63021;52.836;6.376;2022-10-16T08:39:24;101310.53;;;13.94;75.36
55456;BME280;63021;52.836;6.376;2022-10-16T08:50:17;101334.34;;;14.06;75.37
55456;BME280;63021;52.836;6.376;2022-10-16T08:52:44;101331.34;;;14.09;75.19
55456;BME280;63021;52.836;6.376;2022-10-16T08:58:15;101341.97;;;14.18;75.23
55456;BME280;63021;52.836;6.376;2022-10-16T09:00:43;101346.34;;;14.19;75.27
55456;BME280;63021;52.836;6.376;2022-10-16T09:11:00;101361.09;;;14.32;74.49
55456;BME280;63021;52.836;6.376;2022-10-16T09:13:55;101359.97;;;14.34;74.11
55456;BME280;63021;52.836;6.376;2022-10-16T09:16:43;101357.13;;;14.36;73.62
55456;BME280;63021;52.836;6.376;2022-10-16T09:19:25;101362.00;;;14.41;73.65
55456;BME280;63021;52.836;6.376;2022-10-16T09:21:53;101383.97;;;14.44;74.16
55456;BME280;63021;52.836;6.376;2022-10-16T09:24:22;101384.13;;;14.43;73.64
55456;BME280;63021;52.836;6.376;2022-10-16T09:26:49;101384.78;;;14.45;73.47
55456;BME280;63021;52.836;6.376;2022-10-16T09:29:19;101398.56;;;14.50;73.33
55456;BME280;63021;52.836;6.376;2022-10-16T09:31:46;101394.72;;;14.52;73.12
55456;BME280;63021;52.836;6.376;2022-10-16T09:34:24;101400.75;;;14.54;73.13
55456;BME280;63021;52.836;6.376;2022-10-16T09:36:51;101403.09;;;14.58;73.15
55456;BME280;63021;52.836;6.376;2022-10-16T09:39:17;101416.19;;;14.61;73.08
55456;BME280;63021;52.836;6.376;2022-10-16T09:41:44;101413.22;;;14.64;73.15
55456;BME280;63021;52.836;6.376;2022-10-16T09:44:29;101418.09;;;14.68;72.60
55456;BME280;63021;52.836;6.376;2022-10-16T09:47:11;101430.03;;;14.74;72.85
55456;BME280;63021;52.836;6.376;2022-10-16T09:49:37;101440.75;;;14.74;72.70
55456;BME280;63021;52.836;6.376;2022-10-16T09:52:14;101427.84;;;14.78;72.80
55456;BME280;63021;52.836;6.376;2022-10-16T09:54:57;101438.25;;;14.81;72.44
55456;BME280;63021;52.836;6.376;2022-10-16T09:57:23;101439.94;;;14.82;72.56
55456;BME280;63021;52.836;6.376;2022-10-16T09:59:51;101435.94;;;14.86;72.28
55456;BME280;63021;52.836;6.376;2022-10-16T10:02:39;101437.63;;;14.87;71.87
55456;BME280;63021;52.836;6.376;2022-10-16T10:05:05;101453.56;;;14.88;71.13
55456;BME280;63021;52.836;6.376;2022-10-16T10:07:43;101454.06;;;14.92;72.02
55456;BME280;63021;52.836;6.376;2022-10-16T10:10:32;101443.00;;;14.95;71.30
55456;BME280;63021;52.836;6.376;2022-10-16T10:12:57;101448.03;;;14.98;71.61
55456;BME280;63021;52.836;6.376;2022-10-16T10:15:24;101443.06;;;15.03;71.79
55456;BME280;63021;52.836;6.376;2022-10-16T10:17:56;101437.72;;;15.12;71.43
55456;BME280;63021;52.836;6.376;2022-10-16T10:20:28;101446.97;;;15.17;71.51
55456;BME280;63021;52.836;6.376;2022-10-16T10:22:54;101453.00;;;15.19;71.69
55456;BME280;63021;52.836;6.376;2022-10-16T10:33:59;101468.66;;;15.40;70.18
55456;BME280;63021;52.836;6.376;2022-10-16T10:36:38;101476.38;;;15.44;69.93
55456;BME280;63021;52.836;6.376;2022-10-16T10:39:13;101479.06;;;15.44;70.27
55456;BME280;63021;52.836;6.376;2022-10-16T10:42:09;101487.47;;;15.49;69.41
55456;BME280;63021;52.836;6.376;2022-10-16T10:53:25;101502.47;;;15.76;69.03
55456;BME280;63021;52.836;6.376;2022-10-16T10:58:39;101497.97;;;15.85;68.46
55456;BME280;63021;52.836;6.376;2022-10-16T11:01:16;101500.16;;;15.89;67.41
55456;BME280;63021;52.836;6.376;2022-10-16T11:06:39;101513.44;;;15.99;67.68
55456;BME280;63021;52.836;6.376;2022-10-16T11:12:16;101511.25;;;16.11;66.60
55456;BME280;63021;52.836;6.376;2022-10-16T11:14:50;101506.06;;;16.18;66.56
55456;BME280;63021;52.836;6.376;2022-10-16T11:17:22;101508.88;;;16.24;66.20
55456;BME280;63021;52.836;6.376;2022-10-16T11:20:03;101504.19;;;16.26;66.21
55456;BME280;63021;52.836;6.376;2022-10-16T11:22:34;101518.81;;;16.32;65.85
55456;BME280;63021;52.836;6.376;2022-10-16T11:25:20;101510.06;;;16.38;65.37
55456;BME280;63021;52.836;6.376;2022-10-16T11:30:22;101510.72;;;16.49;65.71
55456;BME280;63021;52.836;6.376;2022-10-16T11:33:04;101522.00;;;16.52;65.09
55456;BME280;63021;52.836;6.376;2022-10-16T11:38:12;101523.66;;;16.61;65.27
55456;BME280;63021;52.836;6.376;2022-10-16T11:40:41;101525.81;;;16.66;65.36
55456;BME280;63021;52.836;6.376;2022-10-16T11:43:15;101530.00;;;16.77;64.67
55456;BME280;63021;52.836;6.376;2022-10-16T11:45:46;101537.22;;;16.76;63.99
55456;BME280;63021;52.836;6.376;2022-10-16T11:48:33;101541.25;;;16.80;64.01
55456;BME280;63021;52.836;6.376;2022-10-16T11:54:35;101550.84;;;16.75;62.84
55456;BME280;63021;52.836;6.376;2022-10-16T11:57:12;101549.34;;;16.72;63.04
55456;BME280;63021;52.836;6.376;2022-10-16T12:00:05;101547.16;;;16.76;62.93
55456;BME280;63021;52.836;6.376;2022-10-16T12:08:13;101570.66;;;16.82;63.42
55456;BME280;63021;52.836;6.376;2022-10-16T12:10:42;101569.47;;;16.85;62.54
55456;BME280;63021;52.836;6.376;2022-10-16T12:13:28;101569.47;;;16.85;61.91
55456;BME280;63021;52.836;6.376;2022-10-16T12:18:29;101563.78;;;16.88;61.12
55456;BME280;63021;52.836;6.376;2022-10-16T12:20:56;101576.22;;;16.89;61.52
55456;BME280;63021;52.836;6.376;2022-10-16T12:23:24;101574.69;;;16.86;61.61
55456;BME280;63021;52.836;6.376;2022-10-16T12:25:55;101584.44;;;16.87;60.76
55456;BME280;63021;52.836;6.376;2022-10-16T12:28:26;101577.72;;;16.83;59.81
55456;BME280;63021;52.836;6.376;2022-10-16T12:30:55;101583.94;;;16.84;59.41
55456;BME280;63021;52.836;6.376;2022-10-16T12:33:26;101585.31;;;16.88;59.50
55456;BME280;63021;52.836;6.376;2022-10-16T12:35:53;101583.78;;;16.93;58.87
55456;BME280;63021;52.836;6.376;2022-10-16T12:38:28;101581.25;;;17.00;58.12
55456;BME280;63021;52.836;6.376;2022-10-16T12:41:00;101583.59;;;17.03;57.82
55456;BME280;63021;52.836;6.376;2022-10-16T12:43:46;101587.63;;;17.07;58.01
55456;BME280;63021;52.836;6.376;2022-10-16T12:48:42;101594.00;;;17.14;56.90
55456;BME280;63021;52.836;6.376;2022-10-16T12:53:37;101602.56;;;17.18;56.50
55456;BME280;63021;52.836;6.376;2022-10-16T13:30:26;101644.25;;;17.30;56.97
55456;BME280;63021;52.836;6.376;2022-10-16T13:33:15;101652.50;;;17.29;57.25
55456;BME280;63021;52.836;6.376;2022-10-16T13:35:53;101655.34;;;17.27;57.09
55456;BME280;63021;52.836;6.376;2022-10-16T13:38:22;101651.31;;;17.23;57.55
55456;BME280;63021;52.836;6.376;2022-10-16T13:40:55;101648.97;;;17.20;57.30
55456;BME280;63021;52.836;6.376;2022-10-16T13:45:57;101652.34;;;17.14;57.25
55456;BME280;63021;52.836;6.376;2022-10-16T13:48:23;101656.75;;;17.07;57.76
55456;BME280;63021;52.836;6.376;2022-10-16T13:53:40;101649.50;;;16.99;57.56
55456;BME280;63021;52.836;6.376;2022-10-16T13:56:09;101648.84;;;16.97;57.51
55456;BME280;63021;52.836;6.376;2022-10-16T13:58:35;101648.16;;;16.95;57.94
55456;BME280;63021;52.836;6.376;2022-10-16T14:01:03;101649.38;;;16.92;58.19
55456;BME280;63021;52.836;6.376;2022-10-16T14:03:33;101663.63;;;16.93;58.78
55456;BME280;63021;52.836;6.376;2022-10-16T14:06:03;101666.31;;;16.93;58.60
55456;BME280;63021;52.836;6.376;2022-10-16T14:08:31;101664.63;;;16.92;59.11
55456;BME280;63021;52.836;6.376;2022-10-16T14:10:59;101661.94;;;16.92;59.19
55456;BME280;63021;52.836;6.376;2022-10-16T14:13:44;101673.22;;;16.95;59.58
55456;BME280;63021;52.836;6.376;2022-10-16T14:16:16;101672.53;;;16.93;59.04
55456;BME280;63021;52.836;6.376;2022-10-16T14:18:46;101679.59;;;16.94;59.17
55456;BME280;63021;52.836;6.376;2022-10-16T14:21:13;101687.66;;;16.94;59.09
55456;BME280;63021;52.836;6.376;2022-10-16T14:23:41;101679.78;;;16.93;59.12
55456;BME280;63021;52.836;6.376;2022-10-16T14:28:37;101705.16;;;16.90;58.90
55456;BME280;63021;52.836;6.376;2022-10-16T14:33:45;101702.47;;;16.90;59.00
55456;BME280;63021;52.836;6.376;2022-10-16T14:36:12;101705.97;;;16.91;58.74
55456;BME280;63021;52.836;6.376;2022-10-16T14:38:39;101698.59;;;16.93;59.19
55456;BME280;63021;52.836;6.376;2022-10-16T14:41:06;101711.22;;;16.92;59.37
55456;BME280;63021;52.836;6.376;2022-10-16T14:43:42;101711.06;;;16.94;58.90
55456;BME280;63021;52.836;6.376;2022-10-16T14:46:17;101713.03;;;16.92;59.27
55456;BME280;63021;52.836;6.376;2022-10-16T14:48:52;101708.66;;;16.91;58.96
55456;BME280;63021;52.836;6.376;2022-10-16T14:51:20;101715.91;;;16.90;59.25
55456;BME280;63021;52.836;6.376;2022-10-16T14:53:46;101711.34;;;16.91;59.56
55456;BME280;63021;52.836;6.376;2022-10-16T14:56:53;101717.25;;;16.94;59.81
55456;BME280;63021;52.836;6.376;2022-10-16T14:59:25;101714.56;;;16.94;60.28